sensor_id;sensor_type;location;lat;lon;timestamp;pressure;altitude;pressure_sealevel;temperature;humidity
37068;BME280;22982;42.848;25.468;2023-05-08T00:04:17;96391.59;;;7.62;100.00
37068;BME280;22982;42.848;25.468;2023-05-08T00:09:21;96408.50;;;7.72;100.00
37068;BME280;22982;42.848;25.468;2023-05-08T00:14:24;96394.28;;;7.41;100.00
37068;BME280;22982;42.848;25.468;2023-05-08T00:19:27;96382.84;;;7.25;100.00
37068;BME280;22982;42.848;25.468;2023-05-08T00:24:29;96390.44;;;7.11;100.00
37068;BME280;22982;42.848;25.468;2023-05-08T00:29:33;96394.94;;;7.07;100.00
37068;BME280;22982;42.848;25.468;2023-05-08T00:34:35;96404.78;;;7.00;100.00
37068;BME280;22982;42.848;25.468;2023-05-08T00:39:38;96397.75;;;7.02;100.00
37068;BME280;22982;42.848;25.468;2023-05-08T00:44:40;96381.97;;;7.05;100.00
37068;BME280;22982;42.848;25.468;2023-05-08T00:49:44;96400.22;;;7.05;100.00
37068;BME280;22982;42.848;25.468;2023-05-08T00:54:46;96403.38;;;6.93;100.00
37068;BME280;22982;42.848;25.468;2023-05-08T00:59:51;96395.38;;;6.98;100.00
37068;BME280;22982;42.848;25.468;2023-05-08T01:04:55;96395.06;;;7.04;100.00
37068;BME280;22982;42.848;25.468;2023-05-08T01:09:57;96399.47;;;7.03;100.00
37068;BME280;22982;42.848;25.468;2023-05-08T01:31:20;96402.50;;;7.13;100.00
37068;BME280;22982;42.848;25.468;2023-05-08T01:36:34;96402.56;;;7.12;100.00
37068;BME280;22982;42.848;25.468;2023-05-08T01:41:38;96388.03;;;7.06;100.00
37068;BME280;22982;42.848;25.468;2023-05-08T01:46:47;96396.38;;;7.14;100.00
37068;BME280;22982;42.848;25.468;2023-05-08T01:57:32;96404.44;;;7.08;100.00
37068;BME280;22982;42.848;25.468;2023-05-08T02:02:35;96399.34;;;6.86;100.00
37068;BME280;22982;42.848;25.468;2023-05-08T02:07:42;96398.16;;;6.93;100.00
37068;BME280;22982;42.848;25.468;2023-05-08T02:12:47;96384.06;;;6.97;100.00
37068;BME280;22982;42.848;25.468;2023-05-08T02:17:52;96376.41;;;6.94;100.00
37068;BME280;22982;42.848;25.468;2023-05-08T02:22:56;96376.81;;;6.85;100.00
37068;BME280;22982;42.848;25.468;2023-05-08T02:27:59;96366.63;;;6.79;100.00
37068;BME280;22982;42.848;25.468;2023-05-08T02:33:06;96386.06;;;6.71;100.00
37068;BME280;22982;42.848;25.468;2023-05-08T02:38:11;96368.03;;;6.67;100.00
37068;BME280;22982;42.848;25.468;2023-05-08T02:43:14;96372.94;;;6.54;100.00
37068;BME280;22982;42.848;25.468;2023-05-08T02:48:35;96376.56;;;6.70;100.00
37068;BME280;22982;42.848;25.468;2023-05-08T02:53:49;96379.41;;;6.85;100.00
37068;BME280;22982;42.848;25.468;2023-05-08T02:59:18;96381.31;;;6.81;100.00
37068;BME280;22982;42.848;25.468;2023-05-08T03:04:27;96395.63;;;6.92;100.00
37068;BME280;22982;42.848;25.468;2023-05-08T03:09:40;96371.75;;;6.61;100.00
37068;BME280;22982;42.848;25.468;2023-05-08T03:19:59;96398.03;;;6.76;100.00
37068;BME280;22982;42.848;25.468;2023-05-08T03:25:05;96393.16;;;6.68;100.00
37068;BME280;22982;42.848;25.468;2023-05-08T03:30:12;96365.44;;;6.67;100.00
37068;BME280;22982;42.848;25.468;2023-05-08T03:35:20;96387.16;;;6.86;100.00
37068;BME280;22982;42.848;25.468;2023-05-08T03:40:23;96388.31;;;6.79;100.00
37068;BME280;22982;42.848;25.468;2023-05-08T03:45:27;96401.91;;;6.67;100.00
37068;BME280;22982;42.848;25.468;2023-05-08T03:50:30;96400.13;;;6.88;100.00
37068;BME280;22982;42.848;25.468;2023-05-08T03:55:32;96398.81;;;6.98;100.00
37068;BME280;22982;42.848;25.468;2023-05-08T04:00:44;96410.25;;;7.15;100.00
37068;BME280;22982;42.848;25.468;2023-05-08T04:06:00;96405.25;;;7.29;100.00
37068;BME280;22982;42.848;25.468;2023-05-08T04:16:20;96411.91;;;7.36;100.00
37068;BME280;22982;42.848;25.468;2023-05-08T04:21:27;96402.75;;;7.46;100.00
37068;BME280;22982;42.848;25.468;2023-05-08T04:26:33;96416.53;;;7.67;100.00
37068;BME280;22982;42.848;25.468;2023-05-08T04:31:37;96402.03;;;7.62;100.00
37068;BME280;22982;42.848;25.468;2023-05-08T04:36:41;96365.28;;;7.47;100.00
37068;BME280;22982;42.848;25.468;2023-05-08T04:41:44;96409.16;;;7.77;100.00
37068;BME280;22982;42.848;25.468;2023-05-08T04:46:49;96403.63;;;8.20;100.00
37068;BME280;22982;42.848;25.468;2023-05-08T04:51:51;96378.72;;;8.49;100.00
37068;BME280;22982;42.848;25.468;2023-05-08T04:56:57;96387.00;;;8.75;100.00
37068;BME280;22982;42.848;25.468;2023-05-08T05:02:00;96373.53;;;8.82;100.00
37068;BME280;22982;42.848;25.468;2023-05-08T05:07:04;96381.31;;;10.13;100.00
37068;BME280;22982;42.848;25.468;2023-05-08T05:12:08;96351.41;;;11.77;99.30
37068;BME280;22982;42.848;25.468;2023-05-08T05:17:10;96356.66;;;12.58;91.00
37068;BME280;22982;42.848;25.468;2023-05-08T05:22:14;96343.63;;;12.82;89.29
37068;BME280;22982;42.848;25.468;2023-05-08T05:27:16;96343.31;;;13.00;89.39
37068;BME280;22982;42.848;25.468;2023-05-08T05:32:25;96347.31;;;13.31;88.40
37068;BME280;22982;42.848;25.468;2023-05-08T05:37:27;96358.13;;;13.89;88.90
37068;BME280;22982;42.848;25.468;2023-05-08T05:42:30;96315.34;;;14.10;86.35
37068;BME280;22982;42.848;25.468;2023-05-08T05:47:32;96325.09;;;14.56;81.93
37068;BME280;22982;42.848;25.468;2023-05-08T05:52:38;96321.13;;;14.97;76.68
37068;BME280;22982;42.848;25.468;2023-05-08T05:57:40;96320.31;;;15.42;70.87
37068;BME280;22982;42.848;25.468;2023-05-08T06:02:42;96300.47;;;15.59;73.86
37068;BME280;22982;42.848;25.468;2023-05-08T06:07:49;96305.63;;;15.83;71.87
37068;BME280;22982;42.848;25.468;2023-05-08T06:12:52;96314.28;;;16.17;66.11
37068;BME280;22982;42.848;25.468;2023-05-08T06:17:56;96308.75;;;16.41;67.41
37068;BME280;22982;42.848;25.468;2023-05-08T06:22:58;96310.50;;;17.15;63.03
37068;BME280;22982;42.848;25.468;2023-05-08T06:28:01;96294.06;;;18.42;56.49
37068;BME280;22982;42.848;25.468;2023-05-08T06:33:05;96282.56;;;19.55;51.78
37068;BME280;22982;42.848;25.468;2023-05-08T06:38:07;96288.38;;;20.50;48.98
37068;BME280;22982;42.848;25.468;2023-05-08T06:43:11;96281.94;;;21.31;44.88
37068;BME280;22982;42.848;25.468;2023-05-08T06:48:13;96272.78;;;22.35;48.88
37068;BME280;22982;42.848;25.468;2023-05-08T06:53:17;96258.34;;;24.29;44.15
37068;BME280;22982;42.848;25.468;2023-05-08T06:58:19;96269.19;;;26.23;35.65
37068;BME280;22982;42.848;25.468;2023-05-08T07:03:21;96247.44;;;27.17;37.18
37068;BME280;22982;42.848;25.468;2023-05-08T07:08:24;96234.22;;;27.92;34.99
37068;BME280;22982;42.848;25.468;2023-05-08T07:13:26;96243.41;;;27.69;37.15
37068;BME280;22982;42.848;25.468;2023-05-08T07:18:29;96235.28;;;28.04;35.47
37068;BME280;22982;42.848;25.468;2023-05-08T07:23:32;96233.00;;;28.08;35.41
37068;BME280;22982;42.848;25.468;2023-05-08T07:28:35;96225.34;;;28.18;37.21
37068;BME280;22982;42.848;25.468;2023-05-08T07:33:38;96229.31;;;28.49;37.64
37068;BME280;22982;42.848;25.468;2023-05-08T07:38:40;96209.63;;;28.89;36.46
37068;BME280;22982;42.848;25.468;2023-05-08T07:43:43;96209.38;;;29.30;33.32
37068;BME280;22982;42.848;25.468;2023-05-08T07:48:46;96230.53;;;29.40;30.56
37068;BME280;22982;42.848;25.468;2023-05-08T07:53:49;96207.97;;;29.73;28.47
37068;BME280;22982;42.848;25.468;2023-05-08T07:58:52;96209.34;;;29.37;26.95
37068;BME280;22982;42.848;25.468;2023-05-08T08:03:55;96207.72;;;29.23;26.86
37068;BME280;22982;42.848;25.468;2023-05-08T08:08:57;96183.13;;;29.51;27.07
37068;BME280;22982;42.848;25.468;2023-05-08T08:14:00;96192.56;;;30.50;27.04
37068;BME280;22982;42.848;25.468;2023-05-08T08:19:03;96189.03;;;30.18;26.05
37068;BME280;22982;42.848;25.468;2023-05-08T08:24:05;96206.44;;;30.29;26.50
37068;BME280;22982;42.848;25.468;2023-05-08T08:29:08;96192.34;;;29.30;26.67
37068;BME280;22982;42.848;25.468;2023-05-08T08:34:11;96196.47;;;26.74;31.05
37068;BME280;22982;42.848;25.468;2023-05-08T08:39:13;96189.13;;;28.61;27.93
37068;BME280;22982;42.848;25.468;2023-05-08T08:44:16;96169.84;;;29.43;28.25
37068;BME280;22982;42.848;25.468;2023-05-08T08:49:23;96150.81;;;30.08;27.50
37068;BME280;22982;42.848;25.468;2023-05-08T08:54:29;96182.06;;;30.04;27.32
37068;BME280;22982;42.848;25.468;2023-05-08T08:59:39;96184.47;;;29.08;27.98
37068;BME280;22982;42.848;25.468;2023-05-08T09:04:42;96181.16;;;27.99;29.46
37068;BME280;22982;42.848;25.468;2023-05-08T09:09:45;96168.34;;;28.28;28.53
37068;BME280;22982;42.848;25.468;2023-05-08T09:14:49;96179.72;;;30.14;27.53
37068;BME280;22982;42.848;25.468;2023-05-08T09:19:52;96189.19;;;30.55;26.80
37068;BME280;22982;42.848;25.468;2023-05-08T09:24:57;96174.09;;;30.91;25.58
37068;BME280;22982;42.848;25.468;2023-05-08T09:35:09;96167.09;;;28.77;28.85
37068;BME280;22982;42.848;25.468;2023-05-08T09:40:19;96161.06;;;28.89;28.99
37068;BME280;22982;42.848;25.468;2023-05-08T09:45:30;96154.88;;;27.53;31.12
37068;BME280;22982;42.848;25.468;2023-05-08T09:50:33;96160.53;;;26.10;32.94
37068;BME280;22982;42.848;25.468;2023-05-08T09:55:47;96169.63;;;25.36;33.89
37068;BME280;22982;42.848;25.468;2023-05-08T10:00:50;96152.25;;;25.17;35.41
37068;BME280;22982;42.848;25.468;2023-05-08T10:05:53;96152.16;;;25.40;34.04
37068;BME280;22982;42.848;25.468;2023-05-08T10:11:12;96138.69;;;24.74;34.18
37068;BME280;22982;42.848;25.468;2023-05-08T10:16:17;96164.47;;;24.90;35.25
37068;BME280;22982;42.848;25.468;2023-05-08T10:21:19;96122.13;;;24.71;35.60
37068;BME280;22982;42.848;25.468;2023-05-08T10:26:32;96141.47;;;26.27;34.98
37068;BME280;22982;42.848;25.468;2023-05-08T10:31:39;96140.72;;;27.99;31.06
37068;BME280;22982;42.848;25.468;2023-05-08T10:36:46;96138.88;;;26.97;33.15
37068;BME280;22982;42.848;25.468;2023-05-08T10:41:49;96151.19;;;26.28;34.38
37068;BME280;22982;42.848;25.468;2023-05-08T10:46:56;96129.78;;;25.91;35.92
37068;BME280;22982;42.848;25.468;2023-05-08T10:52:14;96143.88;;;27.06;33.68
37068;BME280;22982;42.848;25.468;2023-05-08T10:57:17;96141.97;;;26.37;34.69
37068;BME280;22982;42.848;25.468;2023-05-08T11:02:27;96155.16;;;24.48;38.24
37068;BME280;22982;42.848;25.468;2023-05-08T11:07:57;96154.63;;;23.92;39.26
37068;BME280;22982;42.848;25.468;2023-05-08T11:13:00;96168.97;;;23.44;40.25
37068;BME280;22982;42.848;25.468;2023-05-08T11:18:08;96174.13;;;23.15;41.47
37068;BME280;22982;42.848;25.468;2023-05-08T11:23:41;96184.22;;;22.88;41.54
37068;BME280;22982;42.848;25.468;2023-05-08T11:33:55;96147.72;;;23.74;39.40
37068;BME280;22982;42.848;25.468;2023-05-08T11:39:06;96162.81;;;24.36;38.39
37068;BME280;22982;42.848;25.468;2023-05-08T11:44:18;96156.72;;;25.62;37.05
37068;BME280;22982;42.848;25.468;2023-05-08T11:49:24;96144.16;;;26.27;36.03
37068;BME280;22982;42.848;25.468;2023-05-08T11:54:30;96149.13;;;25.87;36.85
37068;BME280;22982;42.848;25.468;2023-05-08T11:59:34;96159.44;;;25.47;37.81
37068;BME280;22982;42.848;25.468;2023-05-08T12:04:45;96150.66;;;24.49;38.08
37068;BME280;22982;42.848;25.468;2023-05-08T12:09:49;96156.31;;;23.93;39.68
37068;BME280;22982;42.848;25.468;2023-05-08T12:14:52;96157.03;;;22.60;43.70
37068;BME280;22982;42.848;25.468;2023-05-08T12:19:55;96173.94;;;22.03;45.44
37068;BME280;22982;42.848;25.468;2023-05-08T12:24:57;96160.19;;;21.48;46.70
37068;BME280;22982;42.848;25.468;2023-05-08T12:30:04;96175.25;;;21.31;47.09
37068;BME280;22982;42.848;25.468;2023-05-08T12:35:11;96206.25;;;20.90;48.27
37068;BME280;22982;42.848;25.468;2023-05-08T12:40:26;96212.66;;;20.53;49.76
37068;BME280;22982;42.848;25.468;2023-05-08T12:45:32;96242.81;;;20.17;50.58
37068;BME280;22982;42.848;25.468;2023-05-08T12:50:43;96286.31;;;19.90;51.64
37068;BME280;22982;42.848;25.468;2023-05-08T12:55:55;96310.75;;;19.10;53.80
37068;BME280;22982;42.848;25.468;2023-05-08T13:01:11;96337.50;;;17.71;75.28
37068;BME280;22982;42.848;25.468;2023-05-08T13:06:20;96358.34;;;15.73;90.55
37068;BME280;22982;42.848;25.468;2023-05-08T13:11:30;96373.03;;;15.43;99.78
37068;BME280;22982;42.848;25.468;2023-05-08T13:16:40;96378.38;;;14.97;100.00
37068;BME280;22982;42.848;25.468;2023-05-08T13:21:44;96372.38;;;14.24;100.00
37068;BME280;22982;42.848;25.468;2023-05-08T13:26:48;96392.81;;;14.44;100.00
37068;BME280;22982;42.848;25.468;2023-05-08T13:31:51;96405.03;;;14.45;100.00
37068;BME280;22982;42.848;25.468;2023-05-08T13:36:54;96402.97;;;14.38;100.00
37068;BME280;22982;42.848;25.468;2023-05-08T13:41:57;96403.16;;;14.23;100.00
37068;BME280;22982;42.848;25.468;2023-05-08T13:47:00;96406.25;;;14.17;100.00
37068;BME280;22982;42.848;25.468;2023-05-08T13:52:02;96394.09;;;14.27;100.00
37068;BME280;22982;42.848;25.468;2023-05-08T13:57:05;96383.22;;;14.43;100.00
37068;BME280;22982;42.848;25.468;2023-05-08T14:02:08;96394.47;;;14.58;100.00
37068;BME280;22982;42.848;25.468;2023-05-08T14:07:12;96380.13;;;14.73;100.00
37068;BME280;22982;42.848;25.468;2023-05-08T14:12:14;96382.78;;;14.85;100.00
37068;BME280;22982;42.848;25.468;2023-05-08T14:17:17;96392.41;;;14.86;100.00
37068;BME280;22982;42.848;25.468;2023-05-08T14:22:19;96397.94;;;14.94;100.00
37068;BME280;22982;42.848;25.468;2023-05-08T14:27:21;96406.34;;;14.99;100.00
37068;BME280;22982;42.848;25.468;2023-05-08T14:32:24;96407.53;;;14.95;100.00
37068;BME280;22982;42.848;25.468;2023-05-08T14:37:26;96385.31;;;14.86;100.00
37068;BME280;22982;42.848;25.468;2023-05-08T14:42:29;96382.44;;;14.78;100.00
37068;BME280;22982;42.848;25.468;2023-05-08T14:47:32;96384.78;;;15.05;100.00
37068;BME280;22982;42.848;25.468;2023-05-08T14:52:34;96374.00;;;15.20;100.00
37068;BME280;22982;42.848;25.468;2023-05-08T14:57:37;96368.00;;;15.18;100.00
37068;BME280;22982;42.848;25.468;2023-05-08T15:02:40;96397.50;;;15.11;100.00
37068;BME280;22982;42.848;25.468;2023-05-08T15:07:42;96389.28;;;14.92;100.00
37068;BME280;22982;42.848;25.468;2023-05-08T15:12:46;96399.13;;;14.90;100.00
37068;BME280;22982;42.848;25.468;2023-05-08T15:17:48;96390.69;;;14.73;100.00
37068;BME280;22982;42.848;25.468;2023-05-08T15:22:51;96411.66;;;14.64;100.00
37068;BME280;22982;42.848;25.468;2023-05-08T15:27:55;96409.56;;;14.32;100.00
37068;BME280;22982;42.848;25.468;2023-05-08T15:32:59;96427.50;;;14.27;100.00
37068;BME280;22982;42.848;25.468;2023-05-08T15:38:01;96430.19;;;14.14;100.00
37068;BME280;22982;42.848;25.468;2023-05-08T15:43:06;96425.28;;;13.96;100.00
37068;BME280;22982;42.848;25.468;2023-05-08T15:48:09;96439.00;;;13.89;100.00
37068;BME280;22982;42.848;25.468;2023-05-08T15:53:11;96443.56;;;13.87;100.00
37068;BME280;22982;42.848;25.468;2023-05-08T15:58:14;96468.22;;;13.73;100.00
37068;BME280;22982;42.848;25.468;2023-05-08T16:03:16;96476.25;;;13.58;100.00
37068;BME280;22982;42.848;25.468;2023-05-08T16:08:20;96468.88;;;13.51;100.00
37068;BME280;22982;42.848;25.468;2023-05-08T16:13:22;96481.75;;;13.55;100.00
37068;BME280;22982;42.848;25.468;2023-05-08T16:18:24;96471.09;;;13.44;100.00
37068;BME280;22982;42.848;25.468;2023-05-08T16:23:27;96476.84;;;13.24;100.00
37068;BME280;22982;42.848;25.468;2023-05-08T16:28:29;96496.41;;;13.07;100.00
37068;BME280;22982;42.848;25.468;2023-05-08T16:33:33;96498.34;;;12.77;100.00
37068;BME280;22982;42.848;25.468;2023-05-08T16:38:35;96516.22;;;12.72;100.00
37068;BME280;22982;42.848;25.468;2023-05-08T16:43:37;96510.91;;;12.59;100.00
37068;BME280;22982;42.848;25.468;2023-05-08T16:48:40;96513.28;;;12.50;100.00
37068;BME280;22982;42.848;25.468;2023-05-08T16:53:43;96516.34;;;12.29;100.00
37068;BME280;22982;42.848;25.468;2023-05-08T16:58:46;96505.47;;;12.06;100.00
37068;BME280;22982;42.848;25.468;2023-05-08T17:03:48;96511.59;;;12.07;100.00
37068;BME280;22982;42.848;25.468;2023-05-08T17:08:51;96514.09;;;12.09;100.00
37068;BME280;22982;42.848;25.468;2023-05-08T17:13:53;96515.44;;;12.01;100.00
37068;BME280;22982;42.848;25.468;2023-05-08T17:18:55;96501.00;;;11.80;100.00
37068;BME280;22982;42.848;25.468;2023-05-08T17:24:01;96524.75;;;11.93;100.00
37068;BME280;22982;42.848;25.468;2023-05-08T17:29:03;96491.22;;;11.67;100.00
37068;BME280;22982;42.848;25.468;2023-05-08T17:34:06;96513.63;;;11.87;100.00
37068;BME280;22982;42.848;25.468;2023-05-08T17:39:09;96512.25;;;11.82;100.00
37068;BME280;22982;42.848;25.468;2023-05-08T17:44:12;96521.16;;;11.94;100.00
37068;BME280;22982;42.848;25.468;2023-05-08T17:49:15;96528.03;;;11.96;100.00
37068;BME280;22982;42.848;25.468;2023-05-08T17:54:20;96537.22;;;12.03;100.00
37068;BME280;22982;42.848;25.468;2023-05-08T17:59:22;96534.56;;;11.89;100.00
37068;BME280;22982;42.848;25.468;2023-05-08T18:04:25;96546.03;;;12.02;100.00
37068;BME280;22982;42.848;25.468;2023-05-08T18:09:28;96549.97;;;11.95;100.00
37068;BME280;22982;42.848;25.468;2023-05-08T18:14:31;96564.06;;;11.94;100.00
37068;BME280;22982;42.848;25.468;2023-05-08T18:19:33;96573.53;;;11.97;100.00
37068;BME280;22982;42.848;25.468;2023-05-08T18:24:36;96593.63;;;12.12;100.00
37068;BME280;22982;42.848;25.468;2023-05-08T18:29:38;96603.28;;;12.12;100.00
37068;BME280;22982;42.848;25.468;2023-05-08T18:34:41;96605.91;;;12.12;100.00
37068;BME280;22982;42.848;25.468;2023-05-08T18:39:43;96610.16;;;12.00;100.00
37068;BME280;22982;42.848;25.468;2023-05-08T18:44:45;96622.66;;;12.11;100.00
37068;BME280;22982;42.848;25.468;2023-05-08T18:49:49;96635.31;;;12.18;100.00
37068;BME280;22982;42.848;25.468;2023-05-08T18:54:53;96633.53;;;12.19;100.00
37068;BME280;22982;42.848;25.468;2023-05-08T18:59:55;96625.06;;;12.14;100.00
37068;BME280;22982;42.848;25.468;2023-05-08T19:04:58;96642.72;;;12.26;100.00
37068;BME280;22982;42.848;25.468;2023-05-08T19:10:02;96647.91;;;12.28;100.00
37068;BME280;22982;42.848;25.468;2023-05-08T19:15:10;96624.31;;;12.12;100.00
37068;BME280;22982;42.848;25.468;2023-05-08T19:20:15;96625.63;;;12.04;100.00
37068;BME280;22982;42.848;25.468;2023-05-08T19:25:17;96647.06;;;12.13;100.00
37068;BME280;22982;42.848;25.468;2023-05-08T19:30:20;96633.81;;;12.00;100.00
37068;BME280;22982;42.848;25.468;2023-05-08T19:35:23;96645.75;;;12.05;100.00
37068;BME280;22982;42.848;25.468;2023-05-08T19:40:29;96657.47;;;12.14;100.00
37068;BME280;22982;42.848;25.468;2023-05-08T19:45:55;96654.84;;;12.00;100.00
37068;BME280;22982;42.848;25.468;2023-05-08T19:51:04;96664.88;;;12.07;100.00
37068;BME280;22982;42.848;25.468;2023-05-08T19:56:07;96650.59;;;11.97;100.00
37068;BME280;22982;42.848;25.468;2023-05-08T20:01:09;96664.47;;;11.99;100.00
37068;BME280;22982;42.848;25.468;2023-05-08T20:06:12;96658.13;;;12.03;100.00
37068;BME280;22982;42.848;25.468;2023-05-08T20:11:15;96639.16;;;11.98;100.00
37068;BME280;22982;42.848;25.468;2023-05-08T20:16:17;96634.00;;;11.97;100.00
37068;BME280;22982;42.848;25.468;2023-05-08T20:21:20;96600.03;;;11.78;100.00
37068;BME280;22982;42.848;25.468;2023-05-08T20:26:22;96645.06;;;12.02;100.00
37068;BME280;22982;42.848;25.468;2023-05-08T20:31:28;96635.44;;;11.86;100.00
37068;BME280;22982;42.848;25.468;2023-05-08T20:36:31;96638.59;;;11.93;100.00
37068;BME280;22982;42.848;25.468;2023-05-08T20:41:38;96644.59;;;12.10;100.00
37068;BME280;22982;42.848;25.468;2023-05-08T20:46:40;96628.66;;;11.98;100.00
37068;BME280;22982;42.848;25.468;2023-05-08T20:51:43;96642.81;;;12.10;100.00
37068;BME280;22982;42.848;25.468;2023-05-08T20:56:45;96634.34;;;12.05;100.00
37068;BME280;22982;42.848;25.468;2023-05-08T21:01:48;96627.03;;;11.96;100.00
37068;BME280;22982;42.848;25.468;2023-05-08T21:06:51;96637.44;;;11.97;100.00
37068;BME280;22982;42.848;25.468;2023-05-08T21:11:53;96624.84;;;11.88;100.00
37068;BME280;22982;42.848;25.468;2023-05-08T21:16:56;96628.06;;;11.93;100.00
37068;BME280;22982;42.848;25.468;2023-05-08T21:21:58;96629.47;;;11.99;100.00
37068;BME280;22982;42.848;25.468;2023-05-08T21:27:01;96617.47;;;11.95;100.00
37068;BME280;22982;42.848;25.468;2023-05-08T21:32:04;96634.72;;;11.99;100.00
37068;BME280;22982;42.848;25.468;2023-05-08T21:37:10;96626.88;;;11.83;100.00
37068;BME280;22982;42.848;25.468;2023-05-08T21:42:13;96649.25;;;11.90;100.00
37068;BME280;22982;42.848;25.468;2023-05-08T21:47:16;96651.56;;;11.80;100.00
37068;BME280;22982;42.848;25.468;2023-05-08T21:52:21;96643.13;;;11.75;100.00
37068;BME280;22982;42.848;25.468;2023-05-08T21:57:23;96624.19;;;11.54;100.00
37068;BME280;22982;42.848;25.468;2023-05-08T22:02:26;96625.53;;;11.61;100.00
37068;BME280;22982;42.848;25.468;2023-05-08T22:07:29;96634.94;;;11.65;100.00
37068;BME280;22982;42.848;25.468;2023-05-08T22:12:31;96626.69;;;11.72;100.00
37068;BME280;22982;42.848;25.468;2023-05-08T22:17:34;96626.41;;;11.62;100.00
37068;BME280;22982;42.848;25.468;2023-05-08T22:22:37;96589.13;;;11.55;100.00
37068;BME280;22982;42.848;25.468;2023-05-08T22:27:40;96618.59;;;11.60;100.00
37068;BME280;22982;42.848;25.468;2023-05-08T22:32:51;96634.41;;;11.75;100.00
37068;BME280;22982;42.848;25.468;2023-05-08T22:37:54;96638.41;;;11.66;100.00
37068;BME280;22982;42.848;25.468;2023-05-08T22:42:59;96610.69;;;11.46;100.00
37068;BME280;22982;42.848;25.468;2023-05-08T22:48:02;96640.31;;;11.48;100.00
37068;BME280;22982;42.848;25.468;2023-05-08T22:53:05;96632.66;;;11.59;100.00
37068;BME280;22982;42.848;25.468;2023-05-08T22:58:09;96629.28;;;11.57;100.00
37068;BME280;22982;42.848;25.468;2023-05-08T23:03:11;96633.69;;;11.57;100.00
37068;BME280;22982;42.848;25.468;2023-05-08T23:08:14;96611.06;;;11.54;100.00
37068;BME280;22982;42.848;25.468;2023-05-08T23:13:16;96619.34;;;11.62;100.00
37068;BME280;22982;42.848;25.468;2023-05-08T23:18:20;96614.56;;;11.55;100.00
37068;BME280;22982;42.848;25.468;2023-05-08T23:23:22;96606.09;;;11.49;100.00
37068;BME280;22982;42.848;25.468;2023-05-08T23:28:24;96611.47;;;11.62;100.00
37068;BME280;22982;42.848;25.468;2023-05-08T23:33:27;96614.72;;;11.52;100.00
37068;BME280;22982;42.848;25.468;2023-05-08T23:38:29;96606.03;;;11.51;100.00
37068;BME280;22982;42.848;25.468;2023-05-08T23:43:32;96597.66;;;11.44;100.00
37068;BME280;22982;42.848;25.468;2023-05-08T23:48:34;96602.09;;;11.58;100.00
37068;BME280;22982;42.848;25.468;2023-05-08T23:53:37;96601.13;;;11.59;100.00
37068;BME280;22982;42.848;25.468;2023-05-08T23:58:40;96589.13;;;11.55;100.00
